SPKIC EPGL-EPGL
Flight info
| Callsign | SPKIC |
|---|---|
| Flight time | 0h 34m |
| Altitude | 3000 |
| Route | EPGL DCT EPKWF DCT EPBAA DCT EPRG DCT EPGL |
| Aircraft | C150/L-SDE2E3FGHIJ1RWXY/LB1 |
Departure
| Time | 2026-05-06 19:01 |
|---|---|
| Airport | Gliwice-Trynek Airfield (EPGL) |
Arrival
| Time | 2026-05-06 19:35 |
|---|---|
| Airport | Gliwice-Trynek Airfield (EPGL) |
| Time | Latitude | Longitude | Altitude | Speed | Heading |
|---|---|---|---|---|---|
| 2026-05-06 18:51 | 50.27231 | 18.67229 | 867 ft | 0 kts | 94° |
| 2026-05-06 18:56 | 50.27227 | 18.67245 | 855 ft | 6 kts | 130° |
| 2026-05-06 18:56 | 50.27186 | 18.67291 | 867 ft | 7 kts | 139° |
| 2026-05-06 18:56 | 50.27149 | 18.67399 | 867 ft | 16 kts | 108° |
| 2026-05-06 18:56 | 50.27110 | 18.67584 | 862 ft | 21 kts | 109° |
| 2026-05-06 18:57 | 50.27065 | 18.67792 | 867 ft | 13 kts | 109° |
| 2026-05-06 18:57 | 50.27052 | 18.67865 | 867 ft | 10 kts | 109° |
| 2026-05-06 18:57 | 50.26984 | 18.67914 | 860 ft | 14 kts | 185° |
| 2026-05-06 18:57 | 50.26870 | 18.67898 | 867 ft | 18 kts | 180° |
| 2026-05-06 18:58 | 50.26753 | 18.67868 | 866 ft | 8 kts | 219° |
| 2026-05-06 18:58 | 50.26745 | 18.67749 | 867 ft | 18 kts | 270° |
| 2026-05-06 18:58 | 50.26740 | 18.67498 | 868 ft | 27 kts | 268° |
| 2026-05-06 18:58 | 50.26731 | 18.67175 | 866 ft | 31 kts | 269° |
| 2026-05-06 18:59 | 50.26722 | 18.66861 | 863 ft | 29 kts | 268° |
| 2026-05-06 18:59 | 50.26694 | 18.66667 | 859 ft | 9 kts | 271° |
| 2026-05-06 18:59 | 50.26723 | 18.66682 | 855 ft | 11 kts | 105° |
| 2026-05-06 18:59 | 50.26726 | 18.66828 | 863 ft | 20 kts | 87° |
| 2026-05-06 19:00 | 50.26739 | 18.67296 | 867 ft | 64 kts | 87° |
| 2026-05-06 19:00 | 50.26755 | 18.67813 | 895 ft | 78 kts | 91° |
| 2026-05-06 19:00 | 50.26762 | 18.68624 | 1099 ft | 71 kts | 102° |
| 2026-05-06 19:00 | 50.26418 | 18.68971 | 1274 ft | 72 kts | 196° |
| 2026-05-06 19:01 | 50.25935 | 18.68622 | 1353 ft | 79 kts | 203° |
| 2026-05-06 19:01 | 50.25424 | 18.68212 | 1450 ft | 81 kts | 199° |
| 2026-05-06 19:01 | 50.24844 | 18.68035 | 1465 ft | 85 kts | 188° |
| 2026-05-06 19:01 | 50.24249 | 18.67933 | 1522 ft | 87 kts | 185° |
| 2026-05-06 19:02 | 50.23650 | 18.67906 | 1621 ft | 83 kts | 168° |
| 2026-05-06 19:02 | 50.23095 | 18.68188 | 1666 ft | 84 kts | 161° |
| 2026-05-06 19:02 | 50.22523 | 18.68508 | 1657 ft | 89 kts | 161° |
| 2026-05-06 19:02 | 50.21944 | 18.68858 | 1666 ft | 91 kts | 159° |
| 2026-05-06 19:03 | 50.21362 | 18.69229 | 1663 ft | 91 kts | 160° |
| 2026-05-06 19:03 | 50.20771 | 18.69586 | 1670 ft | 90 kts | 163° |
| 2026-05-06 19:03 | 50.20170 | 18.69898 | 1672 ft | 90 kts | 163° |
| 2026-05-06 19:03 | 50.19591 | 18.70197 | 1629 ft | 87 kts | 163° |
| 2026-05-06 19:04 | 50.19036 | 18.70497 | 1655 ft | 83 kts | 163° |
| 2026-05-06 19:04 | 50.18487 | 18.70756 | 1671 ft | 83 kts | 166° |
| 2026-05-06 19:04 | 50.17930 | 18.71018 | 1708 ft | 82 kts | 159° |
| 2026-05-06 19:04 | 50.17402 | 18.71335 | 1723 ft | 80 kts | 161° |
| 2026-05-06 19:05 | 50.16882 | 18.71644 | 1708 ft | 83 kts | 160° |
| 2026-05-06 19:05 | 50.16334 | 18.71922 | 1713 ft | 83 kts | 166° |
| 2026-05-06 19:05 | 50.15774 | 18.72168 | 1699 ft | 84 kts | 166° |
| 2026-05-06 19:05 | 50.15208 | 18.72420 | 1708 ft | 82 kts | 166° |
| 2026-05-06 19:06 | 50.14659 | 18.72676 | 1691 ft | 84 kts | 165° |
| 2026-05-06 19:06 | 50.14090 | 18.72941 | 1689 ft | 85 kts | 167° |
| 2026-05-06 19:06 | 50.13506 | 18.73204 | 1684 ft | 89 kts | 167° |
| 2026-05-06 19:06 | 50.12925 | 18.73444 | 1715 ft | 85 kts | 169° |
| 2026-05-06 19:07 | 50.12355 | 18.73688 | 1717 ft | 84 kts | 167° |
| 2026-05-06 19:07 | 50.11777 | 18.73946 | 1676 ft | 89 kts | 167° |
| 2026-05-06 19:07 | 50.11182 | 18.74196 | 1684 ft | 89 kts | 168° |
| 2026-05-06 19:07 | 50.10579 | 18.74420 | 1687 ft | 88 kts | 168° |
| 2026-05-06 19:08 | 50.09982 | 18.74603 | 1691 ft | 87 kts | 173° |
| 2026-05-06 19:08 | 50.09379 | 18.74729 | 1690 ft | 87 kts | 176° |
| 2026-05-06 19:08 | 50.08777 | 18.74799 | 1674 ft | 87 kts | 179° |
| 2026-05-06 19:08 | 50.08177 | 18.74853 | 1654 ft | 87 kts | 173° |
| 2026-05-06 19:09 | 50.07586 | 18.75007 | 1664 ft | 85 kts | 168° |
| 2026-05-06 19:09 | 50.07006 | 18.75258 | 1623 ft | 88 kts | 158° |
| 2026-05-06 19:09 | 50.06473 | 18.75711 | 1631 ft | 87 kts | 152° |
| 2026-05-06 19:09 | 50.05932 | 18.76180 | 1588 ft | 91 kts | 146° |
| 2026-05-06 19:10 | 50.05473 | 18.76840 | 1615 ft | 88 kts | 139° |
| 2026-05-06 19:10 | 50.05043 | 18.77503 | 1645 ft | 89 kts | 140° |
| 2026-05-06 19:10 | 50.04602 | 18.78165 | 1645 ft | 90 kts | 141° |
| 2026-05-06 19:10 | 50.04146 | 18.78823 | 1636 ft | 88 kts | 143° |
| 2026-05-06 19:11 | 50.03694 | 18.79457 | 1640 ft | 87 kts | 142° |
| 2026-05-06 19:11 | 50.03244 | 18.80094 | 1650 ft | 88 kts | 142° |
| 2026-05-06 19:11 | 50.02793 | 18.80721 | 1657 ft | 87 kts | 142° |
| 2026-05-06 19:11 | 50.02353 | 18.81367 | 1667 ft | 88 kts | 139° |
| 2026-05-06 19:12 | 50.01926 | 18.82058 | 1649 ft | 89 kts | 140° |
| 2026-05-06 19:12 | 50.01487 | 18.82756 | 1631 ft | 91 kts | 138° |
| 2026-05-06 19:12 | 50.01042 | 18.83484 | 1605 ft | 94 kts | 138° |
| 2026-05-06 19:12 | 50.00586 | 18.84201 | 1603 ft | 94 kts | 139° |
| 2026-05-06 19:13 | 50.00118 | 18.84909 | 1599 ft | 94 kts | 141° |
| 2026-05-06 19:13 | 49.99618 | 18.85557 | 1597 ft | 93 kts | 147° |
| 2026-05-06 19:13 | 49.99120 | 18.86197 | 1594 ft | 93 kts | 142° |
| 2026-05-06 19:13 | 49.98656 | 18.86902 | 1599 ft | 94 kts | 139° |
| 2026-05-06 19:14 | 49.98183 | 18.87608 | 1614 ft | 93 kts | 141° |
| 2026-05-06 19:14 | 49.97739 | 18.88340 | 1622 ft | 94 kts | 129° |
| 2026-05-06 19:14 | 49.97365 | 18.89173 | 1609 ft | 96 kts | 129° |
| 2026-05-06 19:14 | 49.97022 | 18.90050 | 1603 ft | 97 kts | 120° |
| 2026-05-06 19:15 | 49.96715 | 18.90991 | 1596 ft | 97 kts | 124° |
| 2026-05-06 19:15 | 49.96403 | 18.91902 | 1611 ft | 96 kts | 121° |
| 2026-05-06 19:15 | 49.96134 | 18.92851 | 1630 ft | 94 kts | 118° |
| 2026-05-06 19:15 | 49.95886 | 18.93761 | 1656 ft | 93 kts | 116° |
| 2026-05-06 19:16 | 49.95656 | 18.94717 | 1629 ft | 95 kts | 115° |
| 2026-05-06 19:16 | 49.95432 | 18.95701 | 1561 ft | 99 kts | 112° |
| 2026-05-06 19:16 | 49.95239 | 18.96715 | 1503 ft | 99 kts | 113° |
| 2026-05-06 19:16 | 49.95045 | 18.97729 | 1546 ft | 98 kts | 108° |
| 2026-05-06 19:17 | 49.94922 | 18.98736 | 1591 ft | 95 kts | 104° |
| 2026-05-06 19:17 | 49.94838 | 18.99771 | 1518 ft | 100 kts | 103° |
| 2026-05-06 19:17 | 49.94645 | 19.00726 | 1612 ft | 87 kts | 133° |
| 2026-05-06 19:17 | 49.94170 | 19.01168 | 1719 ft | 78 kts | 184° |
| 2026-05-06 19:18 | 49.93736 | 19.00629 | 1646 ft | 87 kts | 244° |
| 2026-05-06 19:18 | 49.93585 | 18.99689 | 1594 ft | 94 kts | 254° |
| 2026-05-06 19:18 | 49.93485 | 18.98670 | 1616 ft | 93 kts | 258° |
| 2026-05-06 19:18 | 49.93446 | 18.97643 | 1545 ft | 98 kts | 263° |
| 2026-05-06 19:19 | 49.93451 | 18.96570 | 1488 ft | 101 kts | 268° |
| 2026-05-06 19:19 | 49.93467 | 18.95474 | 1499 ft | 100 kts | 266° |
| 2026-05-06 19:19 | 49.93495 | 18.94423 | 1524 ft | 98 kts | 269° |
| 2026-05-06 19:19 | 49.93514 | 18.93362 | 1492 ft | 102 kts | 268° |
| 2026-05-06 19:20 | 49.93592 | 18.92266 | 1482 ft | 101 kts | 275° |
| 2026-05-06 19:20 | 49.93743 | 18.91199 | 1473 ft | 100 kts | 282° |
| 2026-05-06 19:20 | 49.93983 | 18.90183 | 1514 ft | 100 kts | 288° |
| 2026-05-06 19:20 | 49.94235 | 18.89191 | 1539 ft | 102 kts | 286° |
| 2026-05-06 19:21 | 49.94488 | 18.88147 | 1628 ft | 101 kts | 285° |
| 2026-05-06 19:21 | 49.94712 | 18.87132 | 1670 ft | 100 kts | 285° |
| 2026-05-06 19:21 | 49.94959 | 18.86115 | 1677 ft | 100 kts | 288° |
| 2026-05-06 19:21 | 49.95275 | 18.85144 | 1719 ft | 102 kts | 298° |
| 2026-05-06 19:22 | 49.95703 | 18.84243 | 1748 ft | 105 kts | 300° |
| 2026-05-06 19:22 | 49.96197 | 18.83394 | 1795 ft | 108 kts | 308° |
| 2026-05-06 19:22 | 49.96747 | 18.82580 | 1830 ft | 111 kts | 311° |
| 2026-05-06 19:22 | 49.97330 | 18.81800 | 1888 ft | 109 kts | 314° |
| 2026-05-06 19:23 | 49.97917 | 18.81055 | 1906 ft | 111 kts | 314° |
| 2026-05-06 19:23 | 49.98506 | 18.80297 | 1939 ft | 108 kts | 313° |
| 2026-05-06 19:23 | 49.99056 | 18.79515 | 1913 ft | 108 kts | 309° |
| 2026-05-06 19:23 | 49.99606 | 18.78695 | 1854 ft | 110 kts | 309° |
| 2026-05-06 19:24 | 50.00147 | 18.77879 | 1878 ft | 106 kts | 309° |
| 2026-05-06 19:24 | 50.00707 | 18.77087 | 1844 ft | 111 kts | 312° |
| 2026-05-06 19:24 | 50.01300 | 18.76313 | 1850 ft | 112 kts | 314° |
| 2026-05-06 19:24 | 50.01889 | 18.75538 | 1874 ft | 110 kts | 311° |
| 2026-05-06 19:25 | 50.02453 | 18.74734 | 1904 ft | 109 kts | 308° |
| 2026-05-06 19:25 | 50.02980 | 18.73888 | 1917 ft | 107 kts | 301° |
| 2026-05-06 19:25 | 50.03390 | 18.72949 | 1950 ft | 104 kts | 292° |
| 2026-05-06 19:25 | 50.03756 | 18.71966 | 1940 ft | 106 kts | 292° |
| 2026-05-06 19:26 | 50.04121 | 18.70966 | 1935 ft | 106 kts | 289° |
| 2026-05-06 19:26 | 50.04448 | 18.69961 | 1987 ft | 103 kts | 287° |
| 2026-05-06 19:26 | 50.04771 | 18.68950 | 1994 ft | 104 kts | 285° |
| 2026-05-06 19:26 | 50.05088 | 18.67936 | 2030 ft | 104 kts | 286° |
| 2026-05-06 19:27 | 50.05396 | 18.66933 | 2059 ft | 104 kts | 284° |
| 2026-05-06 19:27 | 50.05706 | 18.65909 | 2050 ft | 107 kts | 285° |
| 2026-05-06 19:27 | 50.06142 | 18.64960 | 2083 ft | 112 kts | 310° |
| 2026-05-06 19:27 | 50.06825 | 18.64305 | 2068 ft | 120 kts | 331° |
| 2026-05-06 19:28 | 50.07619 | 18.63919 | 2088 ft | 118 kts | 340° |
| 2026-05-06 19:28 | 50.08437 | 18.63700 | 2067 ft | 123 kts | 356° |
| 2026-05-06 19:28 | 50.09308 | 18.63775 | 2024 ft | 127 kts | 5° |
| 2026-05-06 19:28 | 50.10154 | 18.63960 | 1979 ft | 119 kts | 8° |
| 2026-05-06 19:29 | 50.10961 | 18.64196 | 1874 ft | 118 kts | 12° |
| 2026-05-06 19:29 | 50.11752 | 18.64491 | 1732 ft | 117 kts | 15° |
| 2026-05-06 19:29 | 50.12553 | 18.64835 | 1715 ft | 120 kts | 18° |
| 2026-05-06 19:29 | 50.13366 | 18.65026 | 1755 ft | 119 kts | 1° |
| 2026-05-06 19:30 | 50.14199 | 18.65058 | 1764 ft | 119 kts | 0° |
| 2026-05-06 19:30 | 50.15023 | 18.65080 | 1751 ft | 117 kts | 0° |
| 2026-05-06 19:30 | 50.15833 | 18.65076 | 1724 ft | 117 kts | 358° |
| 2026-05-06 19:30 | 50.16644 | 18.65066 | 1757 ft | 116 kts | 359° |
| 2026-05-06 19:31 | 50.17457 | 18.65073 | 1777 ft | 119 kts | 360° |
| 2026-05-06 19:31 | 50.18298 | 18.65095 | 1780 ft | 121 kts | 1° |
| 2026-05-06 19:31 | 50.19977 | 18.65239 | 1726 ft | 120 kts | 4° |
| 2026-05-06 19:32 | 50.20801 | 18.65304 | 1707 ft | 117 kts | 3° |
| 2026-05-06 19:32 | 50.21603 | 18.65287 | 1696 ft | 114 kts | 348° |
| 2026-05-06 19:32 | 50.22347 | 18.64901 | 1663 ft | 114 kts | 340° |
| 2026-05-06 19:32 | 50.23084 | 18.64541 | 1666 ft | 110 kts | 344° |
| 2026-05-06 19:33 | 50.23850 | 18.64292 | 1612 ft | 113 kts | 350° |
| 2026-05-06 19:33 | 50.24631 | 18.64118 | 1517 ft | 116 kts | 350° |
| 2026-05-06 19:33 | 50.25378 | 18.63897 | 1360 ft | 103 kts | 351° |
| 2026-05-06 19:33 | 50.26081 | 18.63713 | 1185 ft | 108 kts | 354° |
| 2026-05-06 19:34 | 50.26773 | 18.63751 | 1280 ft | 96 kts | 26° |
| 2026-05-06 19:34 | 50.26853 | 18.64457 | 1208 ft | 83 kts | 128° |
| 2026-05-06 19:34 | 50.26700 | 18.65210 | 1110 ft | 66 kts | 97° |
| 2026-05-06 19:34 | 50.26704 | 18.65864 | 1009 ft | 58 kts | 94° |
| 2026-05-06 19:35 | 50.26719 | 18.66500 | 910 ft | 60 kts | 93° |
| 2026-05-06 19:35 | 50.26731 | 18.67090 | 866 ft | 44 kts | 87° |
| 2026-05-06 19:35 | 50.26741 | 18.67474 | 868 ft | 29 kts | 92° |
| 2026-05-06 19:35 | 50.26752 | 18.67791 | 867 ft | 29 kts | 91° |
| 2026-05-06 19:36 | 50.26784 | 18.67892 | 867 ft | 8 kts | 341° |
| 2026-05-06 19:36 | 50.26907 | 18.67905 | 860 ft | 25 kts | 1° |
| 2026-05-06 19:36 | 50.27055 | 18.67894 | 867 ft | 12 kts | 308° |
| 2026-05-06 19:36 | 50.27080 | 18.67808 | 862 ft | 0 kts | 288° |